Time;durP1;ratioP1;P1;durP2;ratioP2;P2;SDS_P1;SDS_P2;PMS_P1;PMS_P2;Temp;Humidity;BMP_temperature;BMP_pressure;BME280_temperature;BME280_humidity;BME280_pressure;Samples;Min_cycle;Max_cycle;Signal;HPM_P1;HPM_P2
2021/06/11 00:00:47;;;;;;;3.43;3.23;;;;;;;18.38;66.44;100790.03;5103407;28;20210;-75
2021/06/11 00:03:14;;;;;;;5.33;3.43;;;;;;;18.38;66.50;100792.69;5102651;28;20207;-75
2021/06/11 00:05:40;;;;;;;4.83;3.27;;;;;;;18.43;66.24;100789.81;5102643;28;20366;-74
2021/06/11 00:08:07;;;;;;;3.47;3.27;;;;;;;18.44;66.25;100795.06;5102757;28;20272;-75
2021/06/11 00:10:33;;;;;;;3.83;3.53;;;;;;;18.45;66.23;100794.13;5102935;28;20226;-75
2021/06/11 00:12:59;;;;;;;3.80;3.47;;;;;;;18.41;66.21;100794.31;5102099;28;20214;-75
2021/06/11 00:15:26;;;;;;;4.30;3.90;;;;;;;18.32;65.86;100790.34;5102685;28;20230;-75
2021/06/11 00:17:52;;;;;;;4.00;3.70;;;;;;;18.36;65.49;100793.69;5102561;28;20219;-75
2021/06/11 00:20:21;;;;;;;5.57;3.90;;;;;;;18.37;65.67;100795.41;5102698;28;20210;-74
2021/06/11 00:22:48;;;;;;;4.00;3.80;;;;;;;18.40;65.68;100793.47;5102449;28;20207;-74
2021/06/11 00:25:16;;;;;;;3.93;3.63;;;;;;;18.34;65.83;100799.06;5102874;28;20604;-76
2021/06/11 00:27:42;;;;;;;4.20;3.90;;;;;;;18.37;64.98;100798.88;5102690;28;20262;-75
2021/06/11 00:30:09;;;;;;;4.50;4.20;;;;;;;18.38;64.78;100800.63;5101538;28;20230;-74
2021/06/11 00:32:36;;;;;;;4.33;4.03;;;;;;;18.40;64.93;100798.75;5102410;28;20217;-74
2021/06/11 00:35:02;;;;;;;4.13;3.83;;;;;;;18.39;65.63;100797.06;5102695;28;20261;-75
2021/06/11 00:37:29;;;;;;;4.33;4.03;;;;;;;18.28;66.51;100790.56;5102836;28;20207;-75
2021/06/11 00:39:55;;;;;;;4.23;3.93;;;;;;;18.32;66.09;100795.63;5102465;28;20202;-74
2021/06/11 00:42:21;;;;;;;5.37;3.80;;;;;;;18.34;66.01;100793.75;5102654;28;20264;-75
2021/06/11 00:44:47;;;;;;;3.93;3.63;;;;;;;18.31;66.35;100798.31;5102161;28;20593;-76
2021/06/11 00:47:13;;;;;;;3.93;3.53;;;;;;;18.30;65.90;100796.63;5102800;28;20207;-74
2021/06/11 00:49:39;;;;;;;3.40;3.20;;;;;;;18.20;66.40;100797.03;5102276;28;20246;-75
2021/06/11 00:52:06;;;;;;;3.60;3.30;;;;;;;18.12;66.19;100790.38;5102319;28;20321;-74
2021/06/11 00:54:34;;;;;;;3.80;3.50;;;;;;;18.00;67.00;100792.63;5102569;28;20230;-75
2021/06/11 00:57:00;;;;;;;5.30;3.17;;;;;;;17.96;65.91;100793.69;5102438;28;20195;-75
2021/06/11 00:59:27;;;;;;;3.23;3.03;;;;;;;18.00;64.71;100790.00;5102507;28;20218;-75
2021/06/11 01:01:52;;;;;;;4.13;3.43;;;;;;;18.01;64.79;100786.41;5102405;28;20211;-75
2021/06/11 01:04:18;;;;;;;3.97;3.67;;;;;;;18.04;64.99;100781.00;5101691;28;20237;-75
2021/06/11 01:06:46;;;;;;;3.27;2.97;;;;;;;17.93;64.89;100783.25;5102520;28;20283;-74
2021/06/11 01:09:13;;;;;;;3.60;3.30;;;;;;;17.82;64.91;100785.50;5108102;28;20295;-74
2021/06/11 01:11:43;;;;;;;3.60;3.30;;;;;;;17.70;66.38;100783.38;5113109;28;20232;-74
2021/06/11 01:14:09;;;;;;;3.20;2.93;;;;;;;17.72;67.43;100781.50;5112400;28;20226;-75
2021/06/11 01:16:36;;;;;;;6.73;2.97;;;;;;;17.72;67.54;100773.59;5108716;28;20214;-75
2021/06/11 01:19:03;;;;;;;2.87;2.77;;;;;;;17.72;66.91;100778.88;5105660;28;20210;-75
2021/06/11 01:21:31;;;;;;;3.93;3.17;;;;;;;17.69;67.01;100779.03;5106362;28;20202;-75
2021/06/11 01:24:11;;;;;;;4.40;3.03;;;;;;;17.75;66.58;100773.47;5105114;28;20226;-75
2021/06/11 01:26:42;;;;;;;3.33;3.13;;;;;;;17.65;67.75;100779.16;5105833;28;20214;-75
2021/06/11 01:29:10;;;;;;;3.20;3.00;;;;;;;17.49;68.01;100771.97;5105697;28;20329;-75
2021/06/11 01:31:40;;;;;;;4.70;2.80;;;;;;;17.47;68.11;100774.66;5106131;27;20211;-75
2021/06/11 01:34:10;;;;;;;3.40;3.20;;;;;;;17.32;68.17;100770.88;5105637;28;20273;-75
2021/06/11 01:36:40;;;;;;;2.90;2.80;;;;;;;17.23;68.65;100772.13;5105854;28;20214;-74
2021/06/11 01:39:08;;;;;;;2.93;2.73;;;;;;;17.16;69.10;100775.06;5105201;28;20205;-75
2021/06/11 01:41:35;;;;;;;2.93;2.73;;;;;;;17.13;69.11;100762.03;5105574;28;20726;-74
2021/06/11 01:44:05;;;;;;;5.67;3.30;;;;;;;17.10;68.87;100765.63;5104838;28;20229;-75
2021/06/11 01:46:34;;;;;;;3.40;3.20;;;;;;;17.00;69.32;100775.69;5104989;28;20917;-74
2021/06/11 01:49:02;;;;;;;3.07;2.90;;;;;;;16.98;69.27;100769.63;5105204;28;20214;-74
2021/06/11 01:51:29;;;;;;;3.33;3.13;;;;;;;16.92;69.46;100767.22;5105265;28;20762;-75
2021/06/11 01:53:59;;;;;;;3.30;3.00;;;;;;;16.88;69.29;100770.91;5104846;28;20227;-75
2021/06/11 01:56:25;;;;;;;3.10;2.90;;;;;;;16.90;69.65;100778.75;5105116;28;20236;-75
2021/06/11 01:58:51;;;;;;;2.80;2.60;;;;;;;16.85;69.49;100773.69;5104787;27;20242;-74
2021/06/11 02:01:19;;;;;;;3.50;3.30;;;;;;;16.84;69.51;100777.22;5105913;27;20205;-74
2021/06/11 02:03:47;;;;;;;3.20;3.00;;;;;;;16.66;69.43;100771.72;5104874;27;20219;-74
2021/06/11 02:06:15;;;;;;;3.33;3.13;;;;;;;16.60;69.45;100776.38;5105715;27;20221;-75
2021/06/11 02:08:42;;;;;;;3.20;3.00;;;;;;;16.72;68.88;100775.91;5105397;27;20342;-74
2021/06/11 02:11:08;;;;;;;3.93;3.13;;;;;;;16.71;69.24;100776.81;5105144;27;20604;-74
2021/06/11 02:13:34;;;;;;;3.40;3.10;;;;;;;16.52;70.35;100775.81;5105401;27;20210;-74
2021/06/11 02:16:03;;;;;;;3.73;3.43;;;;;;;16.60;70.02;100766.69;5105664;27;20225;-74
2021/06/11 02:18:32;;;;;;;3.73;3.33;;;;;;;16.62;70.47;100769.25;5104242;27;20217;-74
2021/06/11 02:20:59;;;;;;;4.30;4.00;;;;;;;16.55;70.59;100768.66;5104805;27;20226;-74
2021/06/11 02:23:24;;;;;;;4.43;4.00;;;;;;;16.38;71.12;100768.44;5104835;27;20201;-74
2021/06/11 02:25:50;;;;;;;4.20;3.90;;;;;;;16.42;71.21;100764.75;5106162;27;20230;-75
2021/06/11 02:28:17;;;;;;;4.93;3.77;;;;;;;16.41;71.80;100771.81;5105667;27;20208;-75
2021/06/11 02:30:44;;;;;;;4.27;3.93;;;;;;;16.42;71.46;100767.41;5104373;27;20251;-75
2021/06/11 02:33:11;;;;;;;3.40;3.20;;;;;;;16.45;71.69;100762.88;5104815;27;20209;-75
2021/06/11 02:35:39;;;;;;;4.33;3.80;;;;;;;16.36;72.01;100768.47;5105041;27;20308;-74
2021/06/11 02:38:04;;;;;;;3.93;3.60;;;;;;;16.34;71.16;100759.78;5105416;27;20218;-75
2021/06/11 02:40:30;;;;;;;4.10;3.80;;;;;;;16.32;71.39;100766.03;5105293;27;20192;-75
2021/06/11 02:43:02;;;;;;;4.10;3.90;;;;;;;16.26;71.71;100760.06;5104707;27;20208;-74
2021/06/11 02:45:33;;;;;;;4.43;4.00;;;;;;;16.23;71.69;100762.84;5104254;28;20227;-75
2021/06/11 02:48:06;;;;;;;4.20;3.70;;;;;;;16.29;71.29;100764.34;5103772;28;20567;-75
2021/06/11 02:50:36;;;;;;;4.10;3.77;;;;;;;16.26;71.60;100760.06;5103479;28;20233;-74
2021/06/11 02:53:05;;;;;;;4.33;4.00;;;;;;;16.29;72.57;100764.34;5103556;28;20204;-74
2021/06/11 02:55:33;;;;;;;3.97;3.77;;;;;;;16.23;72.48;100762.84;5103935;28;20232;-75
2021/06/11 02:58:05;;;;;;;4.13;3.70;;;;;;;16.25;72.36;100775.91;5104025;28;20566;-74
2021/06/11 03:00:32;;;;;;;3.80;3.60;;;;;;;16.34;71.14;100772.09;5103746;28;20203;-75
2021/06/11 03:03:03;;;;;;;4.20;3.90;;;;;;;16.31;71.88;100769.56;5103426;28;20211;-75
2021/06/11 03:05:31;;;;;;;4.13;3.83;;;;;;;16.36;72.03;100770.28;5103816;28;20228;-74
2021/06/11 03:08:01;;;;;;;4.20;3.90;;;;;;;16.25;72.58;100768.91;5103862;28;20210;-75
2021/06/11 03:10:30;;;;;;;4.57;4.20;;;;;;;16.31;72.29;100766.94;5103692;28;20227;-75
2021/06/11 03:12:58;;;;;;;4.43;4.13;;;;;;;16.20;72.55;100772.63;5103487;28;20786;-74
2021/06/11 03:15:27;;;;;;;4.83;4.53;;;;;;;16.03;72.96;100768.81;5103827;28;20227;-75
2021/06/11 03:17:55;;;;;;;4.30;4.00;;;;;;;15.87;73.53;100771.13;5103399;28;20215;-75
2021/06/11 03:20:25;;;;;;;4.73;4.33;;;;;;;15.82;73.01;100766.97;5103509;28;20201;-75
2021/06/11 03:22:56;;;;;;;4.47;4.17;;;;;;;15.84;72.59;100767.78;5103220;28;20273;-75
2021/06/11 03:25:28;;;;;;;4.40;4.07;;;;;;;15.80;73.16;100763.53;5103465;28;20243;-75
2021/06/11 03:27:58;;;;;;;4.97;4.53;;;;;;;15.84;73.45;100763.34;5103143;28;20686;-75
2021/06/11 03:30:27;;;;;;;4.00;3.80;;;;;;;15.89;73.61;100758.78;5103203;28;20255;-74
2021/06/11 03:32:57;;;;;;;4.77;4.37;;;;;;;15.89;73.75;100763.19;5103141;28;20200;-74
2021/06/11 03:35:26;;;;;;;4.60;4.30;;;;;;;15.94;73.53;100760.41;5103387;28;20648;-75
2021/06/11 03:37:55;;;;;;;4.40;4.07;;;;;;;15.93;73.29;100762.16;5103335;28;20215;-75
2021/06/11 03:40:24;;;;;;;4.50;4.10;;;;;;;15.95;73.73;100751.56;5103040;28;20258;-74
2021/06/11 03:42:51;;;;;;;4.80;4.50;;;;;;;16.00;73.85;100758.41;5102791;28;20210;-74
2021/06/11 03:45:20;;;;;;;4.20;3.90;;;;;;;16.04;73.39;100760.00;5103097;28;20225;-74
2021/06/11 03:47:48;;;;;;;4.47;4.07;;;;;;;16.10;73.05;100758.06;5102852;28;20204;-75
2021/06/11 03:50:19;;;;;;;4.70;4.30;;;;;;;16.07;72.89;100759.03;5101923;28;20220;-74
2021/06/11 03:52:47;;;;;;;5.00;4.50;;;;;;;15.92;73.80;100759.59;5102762;28;20236;-75
2021/06/11 03:55:17;;;;;;;5.10;4.77;;;;;;;15.99;73.58;100761.09;5102758;28;21144;-74
2021/06/11 03:57:48;;;;;;;4.50;4.20;;;;;;;16.04;73.08;100757.38;5102455;28;20200;-75
2021/06/11 04:00:15;;;;;;;5.17;4.67;;;;;;;15.90;73.81;100754.38;5102879;28;20667;-74
2021/06/11 04:02:42;;;;;;;4.80;4.40;;;;;;;16.04;73.66;100761.78;5102604;28;20204;-75
2021/06/11 04:05:09;;;;;;;4.70;4.30;;;;;;;16.08;73.47;100755.50;5103091;28;20225;-74
2021/06/11 04:07:44;;;;;;;4.50;4.10;;;;;;;16.17;73.09;100762.19;5102746;28;20216;-75
2021/06/11 04:10:15;;;;;;;4.67;4.00;;;;;;;16.14;73.04;100760.53;5102785;28;20287;-74
2021/06/11 04:12:44;;;;;;;4.53;4.23;;;;;;;16.04;73.80;100754.72;5102347;28;20219;-74
2021/06/11 04:15:11;;;;;;;4.47;4.17;;;;;;;15.98;73.93;100749.69;5102466;28;20228;-75
2021/06/11 04:17:41;;;;;;;5.00;4.60;;;;;;;16.05;74.04;100759.09;5102709;28;20215;-74
2021/06/11 04:20:14;;;;;;;4.33;4.03;;;;;;;16.03;74.51;100757.41;5102627;28;20211;-75
2021/06/11 04:22:45;;;;;;;4.50;4.20;;;;;;;16.10;74.62;100758.94;5102223;28;20217;-75
2021/06/11 04:25:13;;;;;;;5.43;4.60;;;;;;;16.11;74.90;100759.78;5102848;28;20240;-74
2021/06/11 04:27:41;;;;;;;4.10;3.80;;;;;;;16.21;74.96;100767.28;5102530;28;20208;-74
2021/06/11 04:30:09;;;;;;;4.33;4.00;;;;;;;16.29;74.76;100751.19;5102142;28;20231;-75
2021/06/11 04:32:34;;;;;;;4.47;4.07;;;;;;;16.32;74.20;100756.34;5102124;28;20586;-75
2021/06/11 04:35:01;;;;;;;3.50;3.30;;;;;;;16.39;74.18;100752.56;5102802;28;20221;-75
2021/06/11 04:37:28;;;;;;;4.20;3.83;;;;;;;16.45;75.03;100741.78;5102484;28;20562;-74
2021/06/11 04:39:54;;;;;;;5.13;4.73;;;;;;;16.52;74.71;100749.47;5102625;28;20231;-75
2021/06/11 04:42:20;;;;;;;4.13;3.83;;;;;;;16.61;74.29;100744.69;5103366;28;20211;-75
2021/06/11 04:44:46;;;;;;;4.30;3.90;;;;;;;16.61;74.71;100749.97;5106331;28;20224;-75
2021/06/11 04:47:12;;;;;;;4.80;4.50;;;;;;;16.68;74.51;100740.03;5106560;27;20296;-75
2021/06/11 04:49:38;;;;;;;4.57;4.27;;;;;;;16.68;74.95;100746.16;5107240;27;20231;-74
2021/06/11 04:52:05;;;;;;;4.30;4.00;;;;;;;16.73;74.93;100748.63;5106841;27;20242;-74
2021/06/11 04:54:32;;;;;;;5.20;4.80;;;;;;;16.75;74.98;100753.81;5107225;27;20231;-75
2021/06/11 04:57:00;;;;;;;6.10;4.53;;;;;;;16.77;75.45;100752.84;5106487;27;20203;-76
2021/06/11 04:59:26;;;;;;;5.30;4.80;;;;;;;16.81;75.33;100748.31;5106758;27;20211;-76
2021/06/11 05:01:51;;;;;;;6.00;5.37;;;;;;;16.91;75.18;100747.06;5104652;27;20296;-75
2021/06/11 05:04:17;;;;;;;5.97;5.53;;;;;;;16.99;74.97;100747.59;5105949;28;20221;-78
2021/06/11 05:06:43;;;;;;;5.97;5.43;;;;;;;17.07;74.57;100753.44;5106000;28;20293;-76
2021/06/11 05:09:09;;;;;;;5.60;5.20;;;;;;;17.19;74.33;100754.69;5106003;28;20413;-76
2021/06/11 05:11:36;;;;;;;5.20;4.90;;;;;;;17.31;74.17;100747.22;5105514;28;20290;-77
2021/06/11 05:14:02;;;;;;;6.10;5.73;;;;;;;17.37;74.11;100741.66;5105736;28;20725;-76
2021/06/11 05:16:28;;;;;;;6.10;5.60;;;;;;;17.39;73.66;100742.47;5105836;28;20267;-76
2021/06/11 05:18:54;;;;;;;5.77;5.37;;;;;;;17.42;73.94;100743.19;5105354;28;20221;-74
2021/06/11 05:21:20;;;;;;;6.40;5.90;;;;;;;17.46;74.72;100738.63;5107580;27;20208;-80
2021/06/11 05:23:45;;;;;;;6.27;5.67;;;;;;;17.51;75.33;100747.22;5105898;27;20246;-73
2021/06/11 05:26:11;;;;;;;6.13;5.60;;;;;;;17.54;74.90;100738.28;5105356;27;20702;-74
2021/06/11 05:28:39;;;;;;;5.33;5.03;;;;;;;17.57;74.78;100744.31;5105394;28;20784;-74
2021/06/11 05:31:04;;;;;;;5.50;5.00;;;;;;;17.59;74.82;100734.53;5104281;28;20290;-74
2021/06/11 05:33:30;;;;;;;6.10;5.50;;;;;;;17.63;74.83;100738.75;5105265;27;20208;-74
2021/06/11 05:35:56;;;;;;;5.37;4.87;;;;;;;17.70;74.80;100735.84;5105341;28;20232;-74
2021/06/11 05:38:22;;;;;;;4.80;4.50;;;;;;;17.75;74.74;100741.78;5105646;28;20264;-74
2021/06/11 05:40:48;;;;;;;5.03;4.63;;;;;;;17.81;74.60;100736.22;5105164;28;20289;-74
2021/06/11 05:43:15;;;;;;;5.67;5.17;;;;;;;17.88;74.56;100731.56;5105078;28;20214;-74
2021/06/11 05:45:42;;;;;;;6.33;5.97;;;;;;;17.89;75.75;100730.66;5105042;28;20231;-74
2021/06/11 05:48:08;;;;;;;6.87;6.37;;;;;;;17.86;76.26;100736.94;5104160;28;20582;-75
2021/06/11 05:50:34;;;;;;;7.17;6.57;;;;;;;17.84;77.05;100728.22;5108098;28;20719;-74
2021/06/11 05:53:01;;;;;;;6.50;6.00;;;;;;;17.91;76.93;100728.78;5109971;28;20205;-74
2021/06/11 05:55:28;;;;;;;6.57;6.07;;;;;;;17.99;76.34;100735.44;5109116;28;20349;-75
2021/06/11 05:57:57;;;;;;;6.07;5.57;;;;;;;18.03;76.69;100728.25;5110069;28;20206;-74
2021/06/11 06:00:24;;;;;;;6.90;6.30;;;;;;;18.03;77.26;100733.53;5105969;28;20582;-75
2021/06/11 06:02:51;;;;;;;7.00;6.37;;;;;;;18.03;77.58;100734.38;5104579;28;20684;-75
2021/06/11 06:05:17;;;;;;;6.43;6.00;;;;;;;18.15;77.23;100732.94;5105118;28;20223;-75
2021/06/11 06:07:43;;;;;;;5.90;5.40;;;;;;;18.27;77.10;100731.53;5104815;28;20208;-75
2021/06/11 06:10:10;;;;;;;6.07;5.67;;;;;;;18.26;77.11;100728.03;5104960;27;20237;-75
2021/06/11 06:12:36;;;;;;;7.37;6.87;;;;;;;18.11;78.27;100734.03;5104139;28;20258;-75
2021/06/11 06:15:03;;;;;;;7.53;6.93;;;;;;;18.15;78.53;100729.47;5104107;28;20232;-75
2021/06/11 06:17:34;;;;;;;6.57;5.97;;;;;;;18.18;78.90;100731.97;5104381;28;20270;-75
2021/06/11 06:20:02;;;;;;;6.53;5.93;;;;;;;18.28;78.98;100732.41;5104362;28;20728;-75
2021/06/11 06:22:28;;;;;;;7.10;6.57;;;;;;;18.36;78.59;100731.13;5104258;28;20262;-75
2021/06/11 06:24:54;;;;;;;6.47;5.97;;;;;;;18.46;78.35;100724.47;5104801;28;20230;-74
2021/06/11 06:27:20;;;;;;;6.60;6.10;;;;;;;18.57;78.35;100725.72;5108867;28;20687;-75
2021/06/11 06:29:46;;;;;;;6.40;5.90;;;;;;;18.64;78.55;100728.00;5108942;28;20213;-75
2021/06/11 06:32:12;;;;;;;7.20;6.50;;;;;;;18.76;77.22;100728.38;5107598;28;20210;-75
2021/06/11 06:34:37;;;;;;;6.87;6.33;;;;;;;18.82;77.00;100725.44;5104617;28;20237;-75
2021/06/11 06:37:06;;;;;;;8.33;6.63;;;;;;;18.95;75.86;100728.34;5104104;28;20591;-75
2021/06/11 06:39:32;;;;;;;7.07;6.50;;;;;;;19.01;75.77;100717.47;5104147;28;20798;-74
2021/06/11 06:41:58;;;;;;;7.70;7.13;;;;;;;19.02;76.13;100724.47;5104122;28;20212;-75
2021/06/11 06:44:24;;;;;;;6.83;6.23;;;;;;;19.14;75.44;100721.22;5103685;28;20283;-75
2021/06/11 06:46:50;;;;;;;6.77;6.27;;;;;;;19.21;74.75;100716.47;5104010;28;20206;-75
2021/06/11 06:49:16;;;;;;;7.03;6.33;;;;;;;19.29;74.50;100721.38;5104061;28;20281;-75
2021/06/11 06:51:42;;;;;;;6.00;5.60;;;;;;;19.34;74.40;100717.53;5103504;28;20230;-75
2021/06/11 06:54:09;;;;;;;6.10;5.70;;;;;;;19.42;74.67;100722.44;5103492;28;20238;-75
2021/06/11 06:56:35;;;;;;;6.00;5.60;;;;;;;19.49;75.02;100713.28;5103704;28;20207;-75
2021/06/11 06:59:01;;;;;;;6.50;6.00;;;;;;;19.55;75.02;100717.41;5103409;28;20721;-75
2021/06/11 07:01:27;;;;;;;6.80;6.20;;;;;;;19.63;75.49;100712.56;5103745;28;20214;-74
2021/06/11 07:03:57;;;;;;;6.30;5.73;;;;;;;19.73;75.08;100713.81;5102870;28;20717;-75
2021/06/11 07:06:23;;;;;;;6.30;5.80;;;;;;;19.69;74.48;100714.88;5103307;28;20203;-75
2021/06/11 07:08:49;;;;;;;5.67;5.20;;;;;;;19.77;74.47;100712.72;5103673;28;20679;-75
2021/06/11 07:11:16;;;;;;;6.80;6.37;;;;;;;19.81;76.17;100708.09;5103599;28;20230;-75
2021/06/11 07:13:42;;;;;;;6.87;5.50;;;;;;;19.94;75.52;100708.28;5103047;28;20233;-75
2021/06/11 07:16:08;;;;;;;6.97;6.30;;;;;;;19.98;75.36;100712.47;5103116;27;20209;-75
2021/06/11 07:18:34;;;;;;;6.77;6.27;;;;;;;20.06;74.96;100714.72;5103551;28;20221;-75
2021/06/11 07:21:00;;;;;;;6.53;5.97;;;;;;;20.10;75.30;100719.81;5103273;28;20207;-75
2021/06/11 07:23:26;;;;;;;6.20;5.77;;;;;;;20.19;74.91;100711.31;5102572;28;20234;-75
2021/06/11 07:25:52;;;;;;;6.83;6.40;;;;;;;20.28;74.11;100717.94;5103425;28;20588;-75
2021/06/11 07:28:19;;;;;;;7.00;6.33;;;;;;;20.35;73.97;100718.44;5103034;28;20204;-75
2021/06/11 07:30:45;;;;;;;6.57;5.53;;;;;;;20.53;72.59;100724.50;5102971;28;20654;-75
2021/06/11 07:33:11;;;;;;;6.13;5.67;;;;;;;20.67;72.21;100713.16;5103028;28;20222;-75
2021/06/11 07:35:37;;;;;;;4.97;4.67;;;;;;;20.70;65.53;100718.31;5102951;28;20224;-75
2021/06/11 07:38:04;;;;;;;4.90;4.47;;;;;;;20.77;65.55;100724.97;5103151;28;20203;-74
2021/06/11 07:40:31;;;;;;;4.97;4.57;;;;;;;20.89;65.54;100721.63;5102976;28;20710;-75
2021/06/11 07:42:56;;;;;;;5.67;4.77;;;;;;;20.91;62.06;100719.75;5102429;28;20594;-75
2021/06/11 07:45:24;;;;;;;5.13;4.73;;;;;;;20.91;62.46;100714.44;5103025;28;20241;-75
2021/06/11 07:47:49;;;;;;;4.70;4.33;;;;;;;20.91;64.10;100716.19;5103262;28;20680;-75
2021/06/11 07:50:15;;;;;;;4.80;4.40;;;;;;;20.95;64.42;100715.97;5102966;28;20236;-75
2021/06/11 07:52:41;;;;;;;5.30;4.20;;;;;;;21.04;67.78;100714.56;5103004;28;20635;-75
2021/06/11 07:55:08;;;;;;;6.03;5.10;;;;;;;21.11;66.14;100721.22;5103217;28;20243;-75
2021/06/11 07:57:34;;;;;;;5.70;5.10;;;;;;;21.15;66.01;100714.78;5102531;28;20214;-75
2021/06/11 08:00:01;;;;;;;5.63;5.13;;;;;;;21.19;62.44;100718.13;5102619;28;20213;-75
2021/06/11 08:02:28;;;;;;;5.00;4.50;;;;;;;21.32;66.34;100724.41;5102937;28;20216;-75
2021/06/11 08:04:54;;;;;;;4.53;4.23;;;;;;;21.39;62.75;100720.44;5102734;28;20270;-75
2021/06/11 08:07:20;;;;;;;4.23;3.93;;;;;;;21.48;61.25;100721.72;5102750;28;20218;-75
2021/06/11 08:09:46;;;;;;;5.23;4.67;;;;;;;21.57;59.18;100718.50;5102750;28;20215;-75
2021/06/11 08:12:13;;;;;;;4.83;4.53;;;;;;;21.62;57.53;100718.22;5102705;28;20388;-74
2021/06/11 08:14:39;;;;;;;4.87;4.57;;;;;;;21.70;58.07;100721.25;5102286;28;20724;-75
2021/06/11 08:17:05;;;;;;;5.53;4.90;;;;;;;21.72;57.96;100723.84;5103520;28;20213;-74
2021/06/11 08:19:32;;;;;;;5.00;4.70;;;;;;;21.72;58.17;100718.53;5110614;28;20214;-75
2021/06/11 08:21:58;;;;;;;5.10;4.50;;;;;;;21.84;61.38;100708.94;5107625;28;20225;-75
2021/06/11 08:24:24;;;;;;;5.33;4.90;;;;;;;21.90;60.44;100714.75;5109955;28;20779;-74
2021/06/11 08:26:50;;;;;;;4.97;4.57;;;;;;;22.00;58.81;100712.34;5112229;28;20207;-75
2021/06/11 08:29:15;;;;;;;4.70;4.40;;;;;;;22.00;57.90;100713.22;5107821;28;20252;-75
2021/06/11 08:31:44;;;;;;;5.40;5.10;;;;;;;22.02;58.15;100718.41;5106253;28;20287;-75
2021/06/11 08:34:10;;;;;;;5.33;4.93;;;;;;;22.11;58.99;100723.16;5106084;28;20286;-75
2021/06/11 08:36:37;;;;;;;5.40;5.00;;;;;;;22.10;58.61;100724.13;5106830;28;20673;-75
2021/06/11 08:39:03;;;;;;;4.90;4.60;;;;;;;22.21;60.38;100731.44;5106229;28;20203;-75
2021/06/11 08:41:31;;;;;;;5.60;5.10;;;;;;;22.23;59.06;100718.03;5106472;27;20224;-74
2021/06/11 08:43:57;;;;;;;6.20;5.80;;;;;;;22.27;58.32;100719.59;5106187;28;20233;-77
2021/06/11 08:46:23;;;;;;;8.93;5.57;;;;;;;22.32;59.08;100720.13;5106285;28;20746;-76
2021/06/11 08:48:49;;;;;;;5.43;5.13;;;;;;;22.29;60.26;100728.31;5106203;28;20210;-76
2021/06/11 08:51:15;;;;;;;6.13;5.73;;;;;;;22.38;58.87;100717.09;5106552;28;20604;-77
2021/06/11 08:53:42;;;;;;;6.13;5.73;;;;;;;22.51;60.01;100711.84;5107561;28;20214;-77
2021/06/11 08:56:08;;;;;;;8.43;5.70;;;;;;;22.57;59.51;100711.44;5106425;28;20204;-76
2021/06/11 08:58:38;;;;;;;7.00;6.40;;;;;;;22.63;59.15;100710.19;5106659;28;20621;-76
2021/06/11 09:01:04;;;;;;;6.30;5.70;;;;;;;22.64;58.78;100712.75;5106255;28;20203;-78
2021/06/11 09:03:34;;;;;;;6.57;5.97;;;;;;;22.73;58.99;100721.94;5105835;28;20723;-76
2021/06/11 09:06:05;;;;;;;7.00;6.47;;;;;;;22.79;56.45;100717.09;5106083;28;20260;-75
2021/06/11 09:08:32;;;;;;;6.10;5.60;;;;;;;22.99;58.56;100718.44;5106134;28;20219;-76
2021/06/11 09:11:12;;;;;;;6.90;6.50;;;;;;;23.08;58.13;100718.78;5105759;28;20223;-75
2021/06/11 09:13:40;;;;;;;5.93;5.53;;;;;;;23.19;55.76;100719.78;5105623;28;20207;-76
2021/06/11 09:16:12;;;;;;;6.23;5.80;;;;;;;23.28;56.08;100718.28;5105802;28;20238;-78
2021/06/11 09:18:43;;;;;;;6.40;5.97;;;;;;;23.37;54.87;100716.84;5106219;28;20215;-76
2021/06/11 09:21:24;;;;;;;6.97;6.47;;;;;;;23.46;52.79;100723.34;5103631;27;20210;-74
2021/06/11 09:24:14;;;;;;;6.83;6.23;;;;;;;23.56;51.89;100719.06;5105246;28;20226;-76
2021/06/11 09:26:41;;;;;;;5.60;5.07;;;;;;;23.72;52.78;100716.19;5106222;28;20228;-76
2021/06/11 09:29:18;;;;;;;5.53;5.10;;;;;;;23.77;53.98;100722.94;5105621;27;20215;-77
2021/06/11 09:31:44;;;;;;;6.07;5.70;;;;;;;23.63;51.18;100725.69;5105531;28;20233;-76
2021/06/11 09:34:19;;;;;;;6.30;5.70;;;;;;;23.69;52.50;100727.94;5105226;28;20224;-76
2021/06/11 09:37:01;;;;;;;6.03;5.60;;;;;;;23.78;53.71;100730.00;5105248;28;20207;-75
2021/06/11 09:39:41;;;;;;;5.93;5.53;;;;;;;23.81;53.05;100730.75;5105327;28;20215;-76
2021/06/11 09:42:09;;;;;;;5.40;5.10;;;;;;;24.07;52.29;100720.91;5104857;28;20259;-76
2021/06/11 09:44:35;;;;;;;6.00;5.70;;;;;;;24.02;52.90;100725.69;5105474;28;20819;-76
2021/06/11 09:47:01;;;;;;;7.37;6.33;;;;;;;23.79;51.34;100723.69;5105145;28;20207;-76
2021/06/11 09:49:28;;;;;;;6.90;6.30;;;;;;;23.86;53.88;100726.78;5105156;28;20386;-76
2021/06/11 09:52:04;;;;;;;6.27;5.77;;;;;;;23.77;52.73;100730.94;5105034;28;20227;-75
2021/06/11 09:54:30;;;;;;;6.23;5.83;;;;;;;23.69;53.55;100725.25;5104961;28;20230;-76
2021/06/11 09:56:57;;;;;;;5.73;5.27;;;;;;;23.70;53.21;100723.44;5105090;28;20210;-76
2021/06/11 09:59:42;;;;;;;6.43;5.93;;;;;;;23.73;52.44;100726.75;5105404;28;20665;-75
2021/06/11 10:02:10;;;;;;;6.77;6.27;;;;;;;23.65;54.07;100728.25;5105026;28;20207;-77
2021/06/11 10:04:37;;;;;;;6.47;6.10;;;;;;;23.58;54.82;100730.47;5105085;28;20283;-75
2021/06/11 10:07:04;;;;;;;5.80;5.40;;;;;;;23.72;54.74;100724.19;5104833;28;20974;-76
2021/06/11 10:09:30;;;;;;;6.20;5.80;;;;;;;23.85;53.04;100716.22;5104891;28;20253;-77
2021/06/11 10:11:56;;;;;;;5.93;5.53;;;;;;;24.02;53.07;100725.69;5104253;28;20219;-75
2021/06/11 10:14:22;;;;;;;6.10;5.60;;;;;;;24.15;51.92;100721.19;5104139;28;20232;-76
2021/06/11 10:16:50;;;;;;;6.27;5.87;;;;;;;24.25;52.13;100714.25;5104713;28;20741;-76
2021/06/11 10:19:16;;;;;;;6.07;5.57;;;;;;;24.38;51.85;100719.56;5103374;28;20697;-76
2021/06/11 10:21:42;;;;;;;6.47;5.87;;;;;;;24.45;50.21;100725.28;5105121;28;20207;-76
2021/06/11 10:24:09;;;;;;;6.13;5.63;;;;;;;24.62;51.60;100727.63;5104853;28;20241;-76
2021/06/11 10:26:36;;;;;;;5.40;5.00;;;;;;;24.57;51.30;100732.44;5104220;28;20282;-76
2021/06/11 10:29:02;;;;;;;5.43;5.13;;;;;;;24.51;50.93;100727.53;5103695;28;20372;-76
2021/06/11 10:31:35;;;;;;;6.63;5.57;;;;;;;24.47;50.52;100726.03;5104383;28;20231;-77
2021/06/11 10:34:04;;;;;;;6.07;5.67;;;;;;;24.28;52.94;100722.03;5103685;28;20451;-76
2021/06/11 10:36:37;;;;;;;5.83;5.43;;;;;;;24.38;52.92;100720.41;5104071;28;20287;-76
2021/06/11 10:39:24;;;;;;;6.60;5.97;;;;;;;24.58;52.56;100716.31;5101855;28;20226;-76
2021/06/11 10:41:56;;;;;;;6.80;6.30;;;;;;;24.49;52.31;100714.28;5104736;28;20470;-75
2021/06/11 10:44:34;;;;;;;7.63;7.03;;;;;;;24.27;51.08;100714.13;5103637;27;20233;-76
2021/06/11 10:47:26;;;;;;;7.10;6.60;;;;;;;24.11;51.38;100714.38;5103500;28;20203;-76
2021/06/11 10:50:05;;;;;;;8.07;7.57;;;;;;;24.05;52.77;100721.00;5103305;27;20204;-77
2021/06/11 10:52:33;;;;;;;7.80;7.13;;;;;;;24.38;53.69;100716.88;5103312;28;20264;-78
2021/06/11 10:55:45;;;;;;;7.53;6.83;;;;;;;24.82;52.55;100714.63;5103192;28;20282;-77
2021/06/11 10:58:25;;;;;;;7.47;6.87;;;;;;;25.06;53.07;100714.59;5104673;28;20211;-77
2021/06/11 11:00:52;;;;;;;7.97;7.27;;;;;;;25.24;50.36;100709.69;5103276;28;20633;-78
2021/06/11 11:03:32;;;;;;;7.43;7.03;;;;;;;25.32;51.38;100710.81;5103276;28;20207;-76
2021/06/11 11:06:27;;;;;;;8.60;7.83;;;;;;;25.26;50.78;100710.44;5103071;28;20209;-76
2021/06/11 11:08:53;;;;;;;8.27;7.77;;;;;;;25.11;50.55;100709.72;5103401;28;20218;-76
2021/06/11 11:11:46;;;;;;;9.20;8.40;;;;;;;24.75;50.83;100715.03;5102887;28;20234;-76
2021/06/11 11:14:39;;;;;;;8.30;7.73;;;;;;;24.63;52.32;100707.09;5103246;28;20234;-76
2021/06/11 11:17:06;;;;;;;8.07;7.53;;;;;;;24.44;52.65;100704.88;5102964;28;20298;-76
2021/06/11 11:19:59;;;;;;;7.43;6.97;;;;;;;24.53;54.84;100706.94;5102834;28;20230;-76
2021/06/11 11:22:29;;;;;;;7.37;6.87;;;;;;;24.69;52.86;100702.16;5054796;28;20753;-77
2021/06/11 11:24:56;;;;;;;7.53;6.67;;;;;;;25.07;54.40;100695.75;5103192;27;20219;-77
2021/06/11 11:27:23;;;;;;;7.70;7.10;;;;;;;25.15;51.08;100698.72;5104479;28;20245;-78
2021/06/11 11:29:51;;;;;;;10.53;7.23;;;;;;;25.54;51.22;100683.25;5103188;28;20211;-76